Time;durP1;ratioP1;P1;durP2;ratioP2;P2;SDS_P1;SDS_P2;PMS_P1;PMS_P2;Temp;Humidity;BMP_temperature;BMP_pressure;BME280_temperature;BME280_humidity;BME280_pressure;Samples;Min_cycle;Max_cycle;Signal;HPM_P1;HPM_P2
2022/01/08 00:01:54;;;;;;;10.75;6.18;;;2.20;99.90;;;;;;5047703;28;20154;-60
2022/01/08 00:04:19;;;;;;;9.68;5.85;;;2.30;99.90;;;;;;5032309;28;20061;-60
2022/01/08 00:06:45;;;;;;;8.35;5.43;;;2.30;99.90;;;;;;5032253;28;20022;-60
2022/01/08 00:09:10;;;;;;;8.30;5.60;;;2.30;99.90;;;;;;5049941;28;20029;-60
2022/01/08 00:11:36;;;;;;;7.88;5.00;;;2.30;99.90;;;;;;5050871;28;20484;-60
2022/01/08 00:14:04;;;;;;;14.18;7.00;;;2.30;99.90;;;;;;5051863;28;20052;-60
2022/01/08 00:16:33;;;;;;;9.18;5.93;;;2.30;99.90;;;;;;5051995;28;20025;-60
2022/01/08 00:18:59;;;;;;;11.02;6.65;;;2.20;99.90;;;;;;5051926;28;20021;-60
2022/01/08 00:21:24;;;;;;;10.50;6.57;;;2.20;99.90;;;;;;5052193;28;20108;-60
2022/01/08 00:23:50;;;;;;;14.35;7.10;;;2.20;99.90;;;;;;5052200;28;20558;-60
2022/01/08 00:26:15;;;;;;;13.90;8.10;;;2.20;99.90;;;;;;5054402;28;20033;-60
2022/01/08 00:28:41;;;;;;;11.05;7.18;;;2.10;99.90;;;;;;5054262;28;20112;-60
2022/01/08 00:31:10;;;;;;;16.48;8.90;;;2.10;99.90;;;;;;5055536;28;20076;-60
2022/01/08 00:33:36;;;;;;;11.52;7.43;;;2.00;99.90;;;;;;5055489;28;20025;-61
2022/01/08 00:36:02;;;;;;;12.95;8.25;;;2.00;99.90;;;;;;5055568;28;20043;-61
2022/01/08 00:38:28;;;;;;;17.52;8.57;;;1.90;99.90;;;;;;5054253;28;20032;-60
2022/01/08 00:40:53;;;;;;;14.55;9.75;;;1.80;99.90;;;;;;5054350;28;20028;-60
2022/01/08 00:43:19;;;;;;;11.90;8.68;;;1.80;99.90;;;;;;5055285;28;20036;-60
2022/01/08 00:45:45;;;;;;;12.85;7.22;;;1.80;99.90;;;;;;5055314;28;20543;-60
2022/01/08 00:48:10;;;;;;;14.40;8.65;;;1.80;99.90;;;;;;5055124;28;20051;-60
2022/01/08 00:50:36;;;;;;;14.73;9.05;;;1.70;99.90;;;;;;5055269;28;20061;-60
2022/01/08 00:53:01;;;;;;;14.25;9.57;;;1.70;99.90;;;;;;5053892;28;20124;-60
2022/01/08 00:55:27;;;;;;;14.10;9.35;;;1.70;99.90;;;;;;5055134;28;20033;-60
2022/01/08 00:57:52;;;;;;;12.57;8.52;;;1.70;99.90;;;;;;5053968;28;20499;-60
2022/01/08 01:00:18;;;;;;;15.23;9.13;;;1.60;99.90;;;;;;5054890;28;20037;-60
2022/01/08 01:02:43;;;;;;;15.23;9.45;;;1.70;99.90;;;;;;5054882;28;20028;-60
2022/01/08 01:05:09;;;;;;;14.65;8.73;;;1.60;99.90;;;;;;5054965;28;20389;-60
2022/01/08 01:07:35;;;;;;;12.15;8.57;;;1.60;99.90;;;;;;5055091;28;20028;-60
2022/01/08 01:10:01;;;;;;;15.60;8.95;;;1.60;99.90;;;;;;5054708;28;20021;-60
2022/01/08 01:12:26;;;;;;;13.73;8.43;;;1.70;99.90;;;;;;5054679;28;20045;-60
2022/01/08 01:14:52;;;;;;;11.55;8.38;;;1.70;99.90;;;;;;5054898;28;20480;-60
2022/01/08 01:17:18;;;;;;;11.35;8.13;;;1.70;99.90;;;;;;5054787;28;20384;-60
2022/01/08 01:19:43;;;;;;;11.90;7.75;;;1.70;99.90;;;;;;5054683;28;20025;-60
2022/01/08 01:22:12;;;;;;;10.02;6.10;;;1.70;99.90;;;;;;5039979;28;20081;-60
2022/01/08 01:24:39;;;;;;;11.63;6.77;;;1.70;99.90;;;;;;5035048;28;20026;-60
2022/01/08 01:27:39;;;;;;;8.82;6.85;;;1.70;99.90;;;;;;5033346;28;20033;-60
2022/01/08 01:41:40;;;;;;;8.88;5.63;;;1.80;99.90;;;;;;5034335;28;20063;-60
2022/01/08 01:49:17;;;;;;;9.45;5.95;;;1.70;99.90;;;;;;5034575;28;20452;-60
2022/01/08 01:51:43;;;;;;;9.65;5.43;;;1.80;99.90;;;;;;5034123;28;20026;-60
2022/01/08 01:54:09;;;;;;;7.63;5.53;;;1.80;99.90;;;;;;5034133;28;20034;-59
2022/01/08 01:56:35;;;;;;;8.27;5.20;;;1.80;99.90;;;;;;5034015;28;20030;-60
2022/01/08 01:59:01;;;;;;;9.15;5.55;;;1.80;99.90;;;;;;5032617;28;20072;-60
2022/01/08 02:01:27;;;;;;;9.48;5.05;;;1.80;99.90;;;;;;5033911;28;20092;-60
2022/01/08 02:03:53;;;;;;;7.72;5.70;;;1.80;99.90;;;;;;5033973;28;20417;-60
2022/01/08 02:06:19;;;;;;;9.98;5.45;;;1.80;99.90;;;;;;5034063;28;20052;-60
2022/01/08 02:08:44;;;;;;;10.55;6.25;;;1.80;99.90;;;;;;5033861;28;20397;-60
2022/01/08 02:11:10;;;;;;;9.43;5.90;;;1.80;99.90;;;;;;5067846;28;20029;-59
2022/01/08 02:13:36;;;;;;;9.15;5.65;;;1.80;99.90;;;;;;5053431;28;20045;-60
2022/01/08 02:16:05;;;;;;;9.45;5.25;;;1.80;99.90;;;;;;5053381;28;20040;-60
2022/01/08 02:18:31;;;;;;;7.28;4.65;;;1.80;99.90;;;;;;5053640;28;20021;-60
2022/01/08 02:20:59;;;;;;;8.65;5.35;;;1.80;99.90;;;;;;5053512;28;20445;-60
2022/01/08 02:23:26;;;;;;;6.60;4.53;;;1.80;99.90;;;;;;5053502;28;20040;-60
2022/01/08 02:26:01;;;;;;;6.93;5.28;;;1.80;99.90;;;;;;5053314;28;20040;-60
2022/01/08 02:28:27;;;;;;;7.55;4.75;;;1.80;99.90;;;;;;5053452;28;20029;-60
2022/01/08 02:30:52;;;;;;;8.60;5.75;;;1.80;99.90;;;;;;5053176;28;20074;-60
2022/01/08 02:33:22;;;;;;;10.30;6.00;;;1.80;99.90;;;;;;5052200;28;20037;-60
2022/01/08 02:35:48;;;;;;;;;;;1.80;99.90;;;;;;5053602;28;20127;-59
2022/01/08 02:38:13;;;;;;;9.75;5.82;;;1.80;99.90;;;;;;5053251;28;20181;-59
2022/01/08 02:40:39;;;;;;;10.25;5.80;;;1.70;99.90;;;;;;5053098;28;20048;-59
2022/01/08 02:43:06;;;;;;;8.40;5.63;;;1.70;99.90;;;;;;5053065;28;20462;-60
2022/01/08 02:45:32;;;;;;;10.43;5.88;;;1.70;99.90;;;;;;5053103;28;20075;-60
2022/01/08 02:47:58;;;;;;;8.07;5.32;;;1.70;99.90;;;;;;5052351;28;20025;-59
2022/01/08 02:50:24;;;;;;;8.93;5.63;;;1.70;99.90;;;;;;5053082;28;20473;-60
2022/01/08 02:52:50;;;;;;;9.45;5.38;;;1.70;99.90;;;;;;5052169;28;20473;-59
2022/01/08 02:55:18;;;;;;;8.50;5.47;;;1.70;99.90;;;;;;5052765;28;20048;-60
2022/01/08 02:57:44;;;;;;;9.15;5.85;;;1.70;99.90;;;;;;5052732;28;20025;-59
2022/01/08 03:00:17;;;;;;;7.97;5.70;;;1.70;99.90;;;;;;5052931;28;20036;-59
2022/01/08 03:02:48;;;;;;;10.82;5.72;;;1.70;99.90;;;;;;5052637;28;20017;-59
2022/01/08 03:05:15;;;;;;;8.90;5.53;;;1.70;99.90;;;;;;5052889;28;20032;-59
2022/01/08 03:07:42;;;;;;;9.75;5.80;;;1.70;99.90;;;;;;5052684;28;20036;-60
2022/01/08 03:10:10;;;;;;;8.32;5.68;;;1.70;99.90;;;;;;5051414;28;20037;-59
2022/01/08 03:12:43;;;;;;;10.38;5.80;;;1.70;99.90;;;;;;5052535;28;20091;-60
2022/01/08 03:15:10;;;;;;;11.40;5.90;;;1.60;99.90;;;;;;5051372;28;20140;-59
2022/01/08 03:17:35;;;;;;;8.85;5.22;;;1.60;99.90;;;;;;5052455;28;20100;-59
2022/01/08 03:20:05;;;;;;;10.13;5.07;;;1.60;99.90;;;;;;5052563;28;20064;-60
2022/01/08 03:22:31;;;;;;;;;;;1.60;99.90;;;;;;5053052;28;20497;-59
2022/01/08 03:24:57;;;;;;;6.97;4.88;;;1.60;99.90;;;;;;5051313;28;19931;-60
2022/01/08 03:27:22;;;;;;;8.73;5.22;;;1.60;99.90;;;;;;5051322;28;20025;-59
2022/01/08 03:29:48;;;;;;;9.57;5.45;;;1.60;99.90;;;;;;5051260;28;20124;-60
2022/01/08 03:32:14;;;;;;;11.00;5.25;;;1.60;99.90;;;;;;5052525;28;20033;-60
2022/01/08 03:34:39;;;;;;;8.45;5.35;;;1.60;99.90;;;;;;5052278;28;20040;-59
2022/01/08 03:37:05;;;;;;;9.90;5.15;;;1.60;99.90;;;;;;5052441;28;20076;-59
2022/01/08 03:39:30;;;;;;;10.57;5.18;;;1.60;99.90;;;;;;5052481;28;20530;-60
2022/01/08 03:41:56;;;;;;;9.38;5.00;;;1.60;99.90;;;;;;5052412;28;20025;-59
2022/01/08 03:44:22;;;;;;;10.43;4.90;;;1.60;99.90;;;;;;5052468;28;20032;-59
2022/01/08 03:46:47;;;;;;;7.47;5.60;;;1.60;99.90;;;;;;5052420;28;20032;-59
2022/01/08 03:49:24;;;;;;;9.50;5.07;;;1.60;99.90;;;;;;5052164;28;20392;-59
2022/01/08 03:51:52;;;;;;;9.57;4.95;;;1.60;99.90;;;;;;5048783;28;20496;-59
2022/01/08 03:54:18;;;;;;;9.80;5.50;;;1.60;99.90;;;;;;5032446;28;20057;-59
2022/01/08 03:56:44;;;;;;;10.63;5.28;;;1.60;99.90;;;;;;5032783;28;20032;-59
2022/01/08 03:59:09;;;;;;;7.70;5.22;;;1.60;99.90;;;;;;5053136;28;20021;-59
2022/01/08 04:01:35;;;;;;;7.60;5.00;;;1.50;99.90;;;;;;5056002;28;20032;-59
2022/01/08 04:04:00;;;;;;;6.93;4.63;;;1.60;99.90;;;;;;5055922;28;20388;-59
2022/01/08 04:06:26;;;;;;;11.30;5.43;;;1.50;99.90;;;;;;5056147;28;20485;-59
2022/01/08 04:08:56;;;;;;;9.52;4.78;;;1.60;99.90;;;;;;5055048;28;20079;-60
2022/01/08 04:11:23;;;;;;;12.15;6.30;;;1.60;99.90;;;;;;5055946;28;20028;-60
2022/01/08 04:13:48;;;;;;;10.25;6.05;;;1.50;99.90;;;;;;5055803;28;20040;-59
2022/01/08 04:16:19;;;;;;;12.02;6.18;;;1.50;99.90;;;;;;5055833;28;20578;-60
2022/01/08 04:18:44;;;;;;;12.45;6.38;;;1.50;99.90;;;;;;5055723;28;20068;-59
2022/01/08 04:23:48;;;;;;;9.35;6.47;;;1.50;99.90;;;;;;5056031;28;20025;-59
2022/01/08 04:26:13;;;;;;;10.82;5.85;;;1.40;99.90;;;;;;5055913;28;20029;-59
2022/01/08 04:28:39;;;;;;;9.73;6.38;;;1.40;99.90;;;;;;5055564;28;20078;-60
2022/01/08 04:31:04;;;;;;;13.30;7.07;;;1.40;99.90;;;;;;5054236;28;20025;-60
2022/01/08 04:33:30;;;;;;;11.55;6.10;;;1.40;99.90;;;;;;5055345;28;20028;-59
2022/01/08 04:35:55;;;;;;;10.88;5.70;;;1.30;99.90;;;;;;5055554;28;20120;-59
2022/01/08 04:38:22;;;;;;;14.77;7.53;;;1.30;99.90;;;;;;5054228;28;20028;-60
2022/01/08 04:40:48;;;;;;;14.55;7.57;;;1.30;99.90;;;;;;5055491;28;20025;-60
2022/01/08 04:43:14;;;;;;;14.25;7.53;;;1.20;99.90;;;;;;5055376;28;20070;-60
2022/01/08 04:45:39;;;;;;;14.63;7.95;;;1.20;99.90;;;;;;5055488;28;20404;-59
2022/01/08 04:48:06;;;;;;;20.05;8.90;;;1.20;99.90;;;;;;5055343;28;20028;-59
2022/01/08 04:50:32;;;;;;;13.63;8.65;;;1.10;99.90;;;;;;5055112;28;20029;-59
2022/01/08 04:52:59;;;;;;;15.20;8.90;;;1.10;99.90;;;;;;5053933;28;20108;-59
2022/01/08 04:55:25;;;;;;;16.38;7.93;;;1.00;99.90;;;;;;5055137;28;20037;-60
2022/01/08 04:57:51;;;;;;;13.77;7.72;;;1.00;99.90;;;;;;5055209;28;20049;-59
2022/01/08 05:00:18;;;;;;;15.18;8.75;;;1.00;99.90;;;;;;5054971;28;20558;-60
2022/01/08 05:02:44;;;;;;;13.85;7.57;;;1.00;99.90;;;;;;5055104;28;20033;-60
2022/01/08 05:05:10;;;;;;;15.07;7.40;;;1.00;99.90;;;;;;5053600;28;20473;-60
2022/01/08 05:07:36;;;;;;;11.48;7.63;;;1.00;99.90;;;;;;5055148;28;20040;-59
2022/01/08 05:10:03;;;;;;;8.52;6.40;;;1.00;99.90;;;;;;5054394;28;20044;-59
2022/01/08 05:12:28;;;;;;;13.10;7.15;;;1.00;99.90;;;;;;5054276;28;20116;-60
2022/01/08 05:14:56;;;;;;;17.00;7.65;;;1.10;99.90;;;;;;5054206;28;20544;-59
2022/01/08 05:17:27;;;;;;;16.13;8.23;;;1.10;99.90;;;;;;5054529;28;20028;-59
2022/01/08 05:19:53;;;;;;;13.93;8.60;;;1.10;99.90;;;;;;5053353;28;20032;-60
2022/01/08 05:22:24;;;;;;;14.55;7.93;;;1.10;99.90;;;;;;5053373;28;20055;-60
2022/01/08 05:24:50;;;;;;;14.30;8.25;;;1.00;99.90;;;;;;5054683;28;20061;-59
2022/01/08 05:27:17;;;;;;;15.13;8.38;;;1.00;99.90;;;;;;5054590;28;20021;-60
2022/01/08 05:29:47;;;;;;;14.57;8.70;;;1.00;99.90;;;;;;5054474;28;20377;-60
2022/01/08 05:32:16;;;;;;;;;;;1.00;99.90;;;;;;5053672;28;20021;-60
2022/01/08 05:34:48;;;;;;;13.93;8.40;;;1.00;99.90;;;;;;5054206;28;20257;-59
2022/01/08 05:37:14;;;;;;;13.60;8.00;;;1.00;99.90;;;;;;5054544;28;20032;-60
2022/01/08 05:39:40;;;;;;;13.40;8.20;;;1.00;99.90;;;;;;5052933;28;20021;-59
2022/01/08 05:42:06;;;;;;;17.13;9.50;;;1.10;99.90;;;;;;5054304;28;20028;-59
2022/01/08 05:44:32;;;;;;;15.40;7.57;;;1.10;99.90;;;;;;5054199;28;20028;-59
2022/01/08 05:46:58;;;;;;;15.38;7.85;;;1.10;99.90;;;;;;5054307;28;20025;-59
2022/01/08 05:49:24;;;;;;;13.48;8.40;;;1.10;99.90;;;;;;5052880;28;20469;-59
2022/01/08 05:51:49;;;;;;;16.00;9.38;;;1.10;99.90;;;;;;5053985;28;20025;-59
2022/01/08 05:54:15;;;;;;;15.70;8.38;;;1.10;99.90;;;;;;5053986;28;20499;-59
2022/01/08 05:56:40;;;;;;;14.90;8.70;;;1.10;99.90;;;;;;5053994;28;20033;-59
2022/01/08 05:59:06;;;;;;;17.00;8.80;;;1.10;99.90;;;;;;5053933;28;20021;-59
2022/01/08 06:01:35;;;;;;;14.75;9.23;;;1.10;99.90;;;;;;5053836;28;20057;-60
2022/01/08 06:04:01;;;;;;;14.05;8.20;;;1.10;99.90;;;;;;5052750;28;20095;-59
2022/01/08 06:06:27;;;;;;;14.68;9.07;;;1.10;99.90;;;;;;5053714;28;20028;-59
2022/01/08 06:08:53;;;;;;;17.27;8.73;;;1.10;99.90;;;;;;5052447;28;20029;-59
2022/01/08 06:11:18;;;;;;;17.70;9.43;;;1.10;99.90;;;;;;5053712;28;20033;-59
2022/01/08 06:13:44;;;;;;;12.98;8.25;;;1.10;99.90;;;;;;5052330;28;20571;-59
2022/01/08 06:16:10;;;;;;;18.30;10.20;;;1.10;99.90;;;;;;5053808;28;20048;-59
2022/01/08 06:18:37;;;;;;;17.42;9.50;;;1.10;99.90;;;;;;5053550;28;20024;-60
2022/01/08 06:21:03;;;;;;;13.23;8.73;;;1.10;99.90;;;;;;5052265;28;20021;-60
2022/01/08 06:23:29;;;;;;;17.20;9.60;;;1.10;99.90;;;;;;5052201;28;20090;-60
2022/01/08 06:25:54;;;;;;;19.88;11.32;;;1.10;99.90;;;;;;5040203;28;20481;-60
2022/01/08 06:28:20;;;;;;;16.35;9.82;;;1.10;99.90;;;;;;5031317;28;20490;-60
2022/01/08 06:30:47;;;;;;;18.95;10.35;;;1.20;99.90;;;;;;5042882;28;20527;-60
2022/01/08 06:33:17;;;;;;;17.42;9.65;;;1.10;99.90;;;;;;5035091;28;20030;-60
2022/01/08 06:35:43;;;;;;;20.80;10.23;;;1.10;99.90;;;;;;5033548;28;20032;-59
2022/01/08 06:38:09;;;;;;;18.15;10.48;;;1.10;99.90;;;;;;5040289;28;20021;-59
2022/01/08 06:40:35;;;;;;;14.02;9.80;;;1.20;99.90;;;;;;5040857;28;20021;-60
2022/01/08 06:43:01;;;;;;;17.65;9.23;;;1.20;99.90;;;;;;5049812;28;20059;-60
2022/01/08 06:45:26;;;;;;;14.88;9.45;;;1.20;99.90;;;;;;5049567;28;20022;-60
2022/01/08 06:47:52;;;;;;;15.10;9.52;;;1.20;99.90;;;;;;5050397;28;20036;-59
2022/01/08 06:50:17;;;;;;;16.75;10.02;;;1.20;99.90;;;;;;5049019;28;20491;-59
2022/01/08 06:52:43;;;;;;;17.33;9.85;;;1.20;99.90;;;;;;5044540;28;20037;-59
2022/01/08 06:55:09;;;;;;;16.77;10.38;;;1.20;99.90;;;;;;5040717;28;20029;-59
2022/01/08 06:57:34;;;;;;;19.42;10.10;;;1.30;99.90;;;;;;5040129;28;20099;-59
2022/01/08 07:00:03;;;;;;;15.23;9.88;;;1.30;99.90;;;;;;5039117;28;20412;-59
2022/01/08 07:02:29;;;;;;;13.75;9.32;;;1.30;99.90;;;;;;5039293;28;20021;-60
2022/01/08 07:04:54;;;;;;;14.48;9.82;;;1.30;99.90;;;;;;5045087;28;20040;-59
2022/01/08 07:07:20;;;;;;;15.73;8.93;;;1.30;99.90;;;;;;5042114;28;20033;-59
2022/01/08 07:09:46;;;;;;;17.58;10.18;;;1.30;99.90;;;;;;5046224;28;20033;-60
2022/01/08 07:12:11;;;;;;;17.50;10.15;;;1.40;99.90;;;;;;5052162;28;20477;-59
2022/01/08 07:14:37;;;;;;;19.63;10.75;;;1.30;99.90;;;;;;5052557;28;20025;-59
2022/01/08 07:17:02;;;;;;;18.98;9.88;;;1.40;99.90;;;;;;5052482;28;20474;-59
2022/01/08 07:19:28;;;;;;;21.45;10.25;;;1.40;99.90;;;;;;5052681;28;20047;-60
2022/01/08 07:21:54;;;;;;;14.45;9.75;;;1.40;99.90;;;;;;5052396;28;20043;-59
2022/01/08 07:24:19;;;;;;;21.85;10.77;;;1.40;99.90;;;;;;5051329;28;20105;-59
2022/01/08 07:26:45;;;;;;;19.30;10.77;;;1.30;99.90;;;;;;5052550;28;20029;-59
2022/01/08 07:29:10;;;;;;;20.08;12.38;;;1.30;99.90;;;;;;5052788;28;20033;-60
2022/01/08 07:31:36;;;;;;;17.50;10.98;;;1.30;99.90;;;;;;5051606;28;20107;-59
2022/01/08 07:34:01;;;;;;;16.10;11.15;;;1.30;99.90;;;;;;5054465;28;20076;-60
2022/01/08 07:36:27;;;;;;;23.85;12.25;;;1.30;99.90;;;;;;5054348;28;20036;-60
2022/01/08 07:38:56;;;;;;;20.08;11.10;;;1.40;99.90;;;;;;5050371;28;20544;-59
2022/01/08 07:41:21;;;;;;;17.10;11.15;;;1.40;99.90;;;;;;5052753;28;20040;-60
2022/01/08 07:43:47;;;;;;;22.40;12.18;;;1.40;99.90;;;;;;5050253;28;20048;-60
2022/01/08 07:46:13;;;;;;;22.35;11.82;;;1.30;99.90;;;;;;5055205;28;20033;-59
2022/01/08 07:48:40;;;;;;;23.58;12.25;;;1.30;99.90;;;;;;5054921;28;20029;-60
2022/01/08 07:51:05;;;;;;;18.23;12.35;;;1.30;99.90;;;;;;5054315;28;20425;-62
2022/01/08 07:53:31;;;;;;;21.02;11.20;;;1.30;99.90;;;;;;5036484;28;20060;-62
2022/01/08 07:55:56;;;;;;;19.33;10.55;;;1.30;99.90;;;;;;5050208;28;20039;-62
2022/01/08 07:58:30;;;;;;;23.58;12.75;;;1.40;99.90;;;;;;5053330;28;20096;-62
2022/01/08 08:00:57;;;;;;;19.92;11.55;;;1.30;99.90;;;;;;5043549;28;20028;-62
2022/01/08 08:03:23;;;;;;;22.52;12.38;;;1.30;99.90;;;;;;5051367;28;20040;-62
2022/01/08 08:05:49;;;;;;;18.30;12.07;;;1.40;99.90;;;;;;5053979;28;20088;-62
2022/01/08 08:08:19;;;;;;;23.13;12.32;;;1.40;99.90;;;;;;5054741;28;20025;-62
2022/01/08 08:10:50;;;;;;;21.73;12.57;;;1.40;99.90;;;;;;5051911;28;20559;-62
2022/01/08 08:13:20;;;;;;;21.33;12.50;;;1.40;99.90;;;;;;5042687;28;20162;-62
2022/01/08 08:15:45;;;;;;;;;;;1.40;99.90;;;;;;5052301;28;20021;-62
2022/01/08 08:18:12;;;;;;;24.67;12.80;;;1.40;99.90;;;;;;5055716;28;20025;-62
2022/01/08 08:20:39;;;;;;;23.13;12.13;;;1.40;99.90;;;;;;5055796;28;20087;-62
2022/01/08 08:23:04;;;;;;;20.05;12.40;;;1.40;99.90;;;;;;5055723;28;20039;-62
2022/01/08 08:25:31;;;;;;;20.00;12.10;;;1.40;99.90;;;;;;5053401;28;20474;-62
2022/01/08 08:27:56;;;;;;;19.88;11.65;;;1.40;99.90;;;;;;5050901;28;20513;-62
2022/01/08 08:30:22;;;;;;;21.17;12.35;;;1.50;99.90;;;;;;5047811;28;20117;-59
2022/01/08 08:32:48;;;;;;;20.15;11.50;;;1.50;99.90;;;;;;5055252;28;20041;-59
2022/01/08 08:35:14;;;;;;;20.80;12.25;;;1.50;99.90;;;;;;5055067;28;20059;-60
2022/01/08 08:37:40;;;;;;;25.05;12.65;;;1.50;99.90;;;;;;5055445;28;20497;-59
2022/01/08 08:40:08;;;;;;;24.73;11.88;;;1.50;99.90;;;;;;5055397;28;20455;-60
2022/01/08 08:42:34;;;;;;;23.50;12.25;;;1.50;99.90;;;;;;5055576;28;20032;-60
2022/01/08 08:45:00;;;;;;;21.80;11.75;;;1.50;99.90;;;;;;5054021;28;20029;-60
2022/01/08 08:47:25;;;;;;;18.30;11.75;;;1.50;99.90;;;;;;5054862;28;20606;-60
2022/01/08 08:49:51;;;;;;;20.13;12.05;;;1.50;99.90;;;;;;5054954;28;20029;-60
2022/01/08 08:52:23;;;;;;;22.35;11.70;;;1.50;99.90;;;;;;5054710;28;20029;-60
2022/01/08 08:54:49;;;;;;;18.60;10.43;;;1.60;99.90;;;;;;5054426;28;20496;-60
2022/01/08 08:57:14;;;;;;;18.70;11.90;;;1.50;99.90;;;;;;5053827;28;20071;-60
2022/01/08 08:59:40;;;;;;;24.15;11.68;;;1.50;99.90;;;;;;5054669;28;20049;-60
2022/01/08 09:02:05;;;;;;;25.75;12.23;;;1.50;99.90;;;;;;5054904;28;20025;-60
2022/01/08 09:04:31;;;;;;;19.50;11.52;;;1.50;99.90;;;;;;5054873;28;20435;-60
2022/01/08 09:06:57;;;;;;;20.50;11.82;;;1.50;99.90;;;;;;5054689;28;20100;-60
2022/01/08 09:09:26;;;;;;;19.17;12.38;;;1.50;99.90;;;;;;5054851;28;20076;-60
2022/01/08 09:11:52;;;;;;;20.25;12.45;;;1.60;99.90;;;;;;5054672;28;20545;-61
2022/01/08 09:14:17;;;;;;;22.20;11.82;;;1.60;99.90;;;;;;5054522;28;20029;-60
2022/01/08 09:16:46;;;;;;;20.42;12.13;;;1.60;99.90;;;;;;5054318;28;20389;-60
2022/01/08 09:19:12;;;;;;;19.13;11.33;;;1.60;99.90;;;;;;5054805;28;20045;-60
2022/01/08 09:21:38;;;;;;;25.48;13.00;;;1.60;99.90;;;;;;5054459;28;20064;-61
2022/01/08 09:24:12;;;;;;;22.27;12.05;;;1.70;99.90;;;;;;5054564;28;20389;-60
2022/01/08 09:26:39;;;;;;;21.17;11.68;;;1.70;99.90;;;;;;5052720;28;20392;-60
2022/01/08 09:29:04;;;;;;;22.70;11.38;;;1.70;99.90;;;;;;5053196;28;20025;-60
2022/01/08 09:31:30;;;;;;;23.35;12.40;;;1.70;99.90;;;;;;5052852;28;20021;-60
2022/01/08 09:33:56;;;;;;;25.85;12.60;;;1.70;99.90;;;;;;5052957;28;20032;-61
2022/01/08 09:36:22;;;;;;;20.80;11.73;;;1.80;99.90;;;;;;5054236;28;20033;-60
2022/01/08 09:38:49;;;;;;;23.92;12.10;;;1.80;99.90;;;;;;5054506;28;20025;-61
2022/01/08 09:41:15;;;;;;;21.90;12.57;;;1.80;99.90;;;;;;5054261;28;20013;-61
2022/01/08 09:43:40;;;;;;;22.05;12.13;;;1.80;99.90;;;;;;5054175;28;20029;-60
2022/01/08 09:46:06;;;;;;;29.15;12.40;;;1.90;99.90;;;;;;5054375;28;20033;-61
2022/01/08 09:48:31;;;;;;;25.98;12.50;;;1.90;99.90;;;;;;5054176;28;20025;-60
2022/01/08 09:50:57;;;;;;;26.80;14.23;;;1.90;99.90;;;;;;5054203;28;20393;-60
2022/01/08 09:53:23;;;;;;;23.38;14.40;;;2.00;99.90;;;;;;5054117;28;20025;-61
2022/01/08 09:55:49;;;;;;;28.55;15.00;;;2.00;99.90;;;;;;5052509;28;20029;-61
2022/01/08 09:58:14;;;;;;;23.52;13.85;;;2.00;99.90;;;;;;5054096;28;20058;-61
2022/01/08 10:00:40;;;;;;;27.85;14.88;;;2.00;99.90;;;;;;5053956;28;20490;-60
2022/01/08 10:03:23;;;;;;;21.95;13.40;;;2.10;99.90;;;;;;5034064;28;20029;-60
2022/01/08 10:05:59;;;;;;;26.17;14.73;;;2.10;99.90;;;;;;5033963;28;20025;-60
2022/01/08 10:08:27;;;;;;;22.73;15.85;;;2.10;99.90;;;;;;5032732;28;20028;-61
2022/01/08 10:11:06;;;;;;;24.38;14.68;;;2.10;99.90;;;;;;5033830;28;20065;-60
2022/01/08 10:13:36;;;;;;;32.10;16.23;;;2.20;99.90;;;;;;5033576;28;20041;-60
2022/01/08 10:18:49;;;;;;;25.05;14.15;;;2.30;99.90;;;;;;5053633;28;20480;-61
2022/01/08 10:21:37;;;;;;;30.65;15.52;;;2.30;99.90;;;;;;5052382;28;20036;-60
2022/01/08 10:24:08;;;;;;;26.38;15.68;;;2.40;99.90;;;;;;5052235;28;20029;-60
2022/01/08 10:26:41;;;;;;;27.30;15.63;;;2.40;99.90;;;;;;5053244;28;20021;-60
2022/01/08 10:29:12;;;;;;;24.95;15.82;;;2.50;99.90;;;;;;5053259;28;20063;-61
2022/01/08 10:31:40;;;;;;;27.85;15.43;;;2.50;99.90;;;;;;5053143;28;20052;-60
2022/01/08 10:34:14;;;;;;;24.38;15.18;;;2.50;99.90;;;;;;5051754;28;20127;-60
2022/01/08 10:36:54;;;;;;;27.45;15.70;;;2.50;99.90;;;;;;5052502;28;20021;-61
2022/01/08 10:40:15;;;;;;;;;;;;;;;;;;;;;
2022/01/08 10:42:41;;;;;;;34.40;18.23;;;2.50;99.90;;;;;;5043179;28;20023;-60
2022/01/08 10:45:25;;;;;;;28.40;17.77;;;2.50;99.90;;;;;;5048593;28;20101;-60
2022/01/08 10:48:23;;;;;;;29.15;16.98;;;2.50;99.90;;;;;;5049063;28;20020;-61
2022/01/08 10:50:49;;;;;;;28.85;17.60;;;2.60;99.90;;;;;;5047299;28;20112;-60
2022/01/08 10:53:14;;;;;;;31.98;17.90;;;2.60;99.90;;;;;;5050739;28;20111;-61
2022/01/08 10:55:41;;;;;;;35.05;18.77;;;2.70;99.90;;;;;;5051690;28;20024;-61
2022/01/08 10:58:07;;;;;;;33.70;17.80;;;2.70;99.90;;;;;;5049147;28;20080;-60
2022/01/08 11:00:33;;;;;;;28.23;17.40;;;2.80;99.90;;;;;;5031470;28;20021;-63
2022/01/08 11:02:58;;;;;;;36.78;17.75;;;2.80;99.90;;;;;;5049054;28;20032;-63
2022/01/08 11:05:24;;;;;;;32.70;18.10;;;2.90;99.90;;;;;;5049046;28;20021;-63
2022/01/08 11:07:49;;;;;;;33.75;18.27;;;3.00;99.90;;;;;;5051130;28;20073;-63
2022/01/08 11:10:18;;;;;;;27.95;16.98;;;3.00;99.90;;;;;;5049148;28;20514;-63
2022/01/08 11:12:46;;;;;;;31.17;16.73;;;3.10;99.90;;;;;;5048593;28;20784;-63
2022/01/08 11:18:27;;;;;;;33.03;17.17;;;3.30;99.90;;;;;;5035819;28;20032;-63
2022/01/08 11:20:54;;;;;;;33.30;17.15;;;3.30;99.90;;;;;;5044062;28;20065;-63
2022/01/08 11:23:24;;;;;;;30.02;16.08;;;3.30;99.90;;;;;;5046398;28;20053;-63
2022/01/08 11:25:51;;;;;;;28.58;16.10;;;3.30;99.90;;;;;;5051915;28;20028;-63
2022/01/08 11:28:17;;;;;;;32.47;16.80;;;3.40;99.90;;;;;;5048862;28;20499;-63
2022/01/08 11:31:08;;;;;;;28.40;16.20;;;3.40;99.90;;;;;;5052636;28;20469;-63
2022/01/08 11:33:36;;;;;;;30.33;15.82;;;3.50;99.90;;;;;;5050989;28;20032;-63
2022/01/08 11:36:01;;;;;;;29.75;16.25;;;3.50;99.90;;;;;;5052435;28;20074;-63
2022/01/08 11:38:28;;;;;;;35.15;17.45;;;3.50;99.90;;;;;;5052236;28;20025;-63
2022/01/08 11:41:14;;;;;;;29.85;15.02;;;3.50;99.90;;;;;;5052561;28;20435;-63
2022/01/08 11:43:40;;;;;;;26.60;14.73;;;3.60;99.90;;;;;;5052222;28;20086;-63
2022/01/08 11:46:08;;;;;;;31.58;15.65;;;3.70;99.90;;;;;;5052589;28;20025;-63
2022/01/08 11:48:37;;;;;;;27.38;15.35;;;3.70;99.90;;;;;;5050984;28;20021;-63
2022/01/08 11:51:06;;;;;;;25.25;13.90;;;3.80;99.90;;;;;;5052581;28;20025;-61
2022/01/08 11:53:43;;;;;;;25.45;14.07;;;3.80;99.90;;;;;;5051002;28;20136;-61
2022/01/08 11:56:25;;;;;;;24.23;14.40;;;3.80;99.90;;;;;;5052519;28;20029;-60
2022/01/08 11:59:21;;;;;;;23.38;13.55;;;3.80;99.90;;;;;;5052086;28;20389;-61
2022/01/08 12:03:00;;;;;;;22.92;12.85;;;3.80;99.90;;;;;;5052196;28;20489;-63
2022/01/08 12:05:28;;;;;;;19.38;12.05;;;3.80;99.90;;;;;;5030045;28;20116;-60
2022/01/08 12:08:14;;;;;;;22.98;11.93;;;3.90;99.90;;;;;;5030259;28;20025;-60
2022/01/08 12:10:56;;;;;;;23.95;12.70;;;3.90;99.90;;;;;;5048496;28;20041;-61
2022/01/08 12:13:44;;;;;;;27.80;13.50;;;3.90;99.90;;;;;;5050314;28;20548;-61
2022/01/08 12:16:36;;;;;;;23.98;13.65;;;4.00;99.90;;;;;;5048305;28;20143;-63
2022/01/08 12:19:09;;;;;;;30.88;11.80;;;3.90;99.90;;;;;;5048441;28;20547;-63
2022/01/08 12:21:40;;;;;;;22.33;12.07;;;3.90;99.90;;;;;;5048523;28;20068;-63
2022/01/08 12:24:26;;;;;;;23.70;12.80;;;3.90;99.90;;;;;;5052178;28;20104;-63
2022/01/08 12:27:40;;;;;;;19.40;10.85;;;3.90;99.90;;;;;;5054853;28;20108;-63
2022/01/08 12:30:37;;;;;;;;;;;;;;;;;;;;;
2022/01/08 12:33:16;;;;;;;24.20;10.95;;;3.80;99.90;;;;;;5054701;28;20029;-63
2022/01/08 12:35:44;;;;;;;23.80;11.02;;;3.80;99.90;;;;;;5052316;28;20444;-63
2022/01/08 12:38:39;;;;;;;20.75;9.45;;;3.80;99.90;;;;;;5053165;28;20031;-63
2022/01/08 12:41:18;;;;;;;20.58;10.07;;;3.80;99.90;;;;;;5066722;28;20021;-63
2022/01/08 12:43:44;;;;;;;19.23;10.77;;;3.80;99.90;;;;;;5051543;28;20013;-63
2022/01/08 12:46:24;;;;;;;16.88;9.85;;;3.80;99.90;;;;;;5054864;28;20025;-63
2022/01/08 12:49:22;;;;;;;19.58;11.10;;;3.80;99.90;;;;;;5055146;28;20052;-63
2022/01/08 12:51:55;;;;;;;15.52;8.35;;;3.80;99.90;;;;;;5055409;28;20049;-63
2022/01/08 12:54:22;;;;;;;15.57;7.63;;;3.80;99.90;;;;;;5054111;28;20060;-63
2022/01/08 12:56:51;;;;;;;16.40;8.40;;;3.80;99.90;;;;;;5036572;28;20024;-63
2022/01/08 12:59:18;;;;;;;18.55;7.97;;;3.80;99.90;;;;;;5051658;28;20481;-61
2022/01/08 13:01:49;;;;;;;13.38;6.70;;;3.80;99.90;;;;;;5051012;28;20385;-60
2022/01/08 13:04:17;;;;;;;16.30;7.00;;;3.80;99.90;;;;;;5047379;28;20098;-60
2022/01/08 13:06:45;;;;;;;16.50;6.30;;;3.80;99.90;;;;;;5053896;28;20027;-61
2022/01/08 13:09:11;;;;;;;12.05;5.25;;;3.80;99.90;;;;;;5054750;28;20025;-60
2022/01/08 13:11:39;;;;;;;13.85;6.22;;;3.90;99.90;;;;;;5053629;28;20064;-60
2022/01/08 13:14:19;;;;;;;12.23;5.90;;;3.90;99.90;;;;;;5054614;28;20519;-60
2022/01/08 13:16:48;;;;;;;13.02;5.38;;;3.90;99.90;;;;;;5054551;28;20382;-60
2022/01/08 13:19:16;;;;;;;11.05;5.18;;;4.00;99.90;;;;;;5054751;28;20473;-60
2022/01/08 13:21:48;;;;;;;14.10;6.43;;;4.00;99.90;;;;;;5054812;28;20033;-60